^^
Datos históricos de la estación: Murcia-Puente Tocinos
Diario Informe para Enero 25, 2019 Unidades:  Ambas    Ingés   Métrico
Diario Semanal Mensual Anual
  Máxima: Mínima: Promedio:
Temperatura: 74.1 °F /  23.4 °C 60.1 °F /  15.6 °C 66 °F /  18.9 °C
Punto de rocio: 55.6 °F /  13.1 °C 47.5 °F /  8.6 °C 51.3 °F /  10.7 °C
Humedad: 74.9% 44.9% 59%
Velocidad viento: 10mph /  16.1km/h - 5mph /  8.1km/h
Racha viento: 19mph /  30.6km/h - -
Viento- - SSE
Presión: 30 in /  1017.2 hPa 29.9 in /  1013.1 hPa -
Precipitación: 0 in /  0.0 mm    
 
 
Tabla de datos para Enero 25, 2019
Hora Temperatura Punto de rocio Presión Viento Velocidad viento Racha viento Humedad Intensidad lluvia(por hora) Nubes
00:04 61.5 °F /  16.4 °C 52.3 °F /  11.3 °C 30in /  1014.2hPa SO 4.3mph /  6.9km/h 9.2mph /  14.8km/h 72% 0in /  0.0mm
00:09 61.5 °F /  16.4 °C 52.3 °F /  11.3 °C 30in /  1014.2hPa SO 4.7mph /  7.6km/h 9.7mph /  15.6km/h 71.9% 0in /  0.0mm
00:14 61.5 °F /  16.4 °C 52.3 °F /  11.3 °C 30in /  1014.2hPa OSO 5.4mph /  8.7km/h 10mph /  16.1km/h 72% 0in /  0.0mm
00:19 61.3 °F /  16.3 °C 52.2 °F /  11.2 °C 30in /  1014.3hPa OSO 5.2mph /  8.3km/h 9.2mph /  14.8km/h 72% 0in /  0.0mm
00:24 61.3 °F /  16.3 °C 52.5 °F /  11.4 °C 30in /  1014.3hPa SO 4.7mph /  7.6km/h 9mph /  14.5km/h 72.9% 0in /  0.0mm
00:29 61.2 °F /  16.2 °C 52.7 °F /  11.5 °C 30in /  1014.3hPa SO 4.7mph /  7.6km/h 8.1mph /  13km/h 73.6% 0in /  0.0mm
00:34 61.2 °F /  16.2 °C 52.7 °F /  11.5 °C 30in /  1014.4hPa SO 4.7mph /  7.6km/h 8mph /  12.9km/h 74% 0in /  0.0mm
00:39 61 °F /  16.1 °C 52.7 °F /  11.5 °C 30in /  1014.4hPa SO 4.5mph /  7.3km/h 8.1mph /  13km/h 74.1% 0in /  0.0mm
00:44 61.2 °F /  16.2 °C 53.1 °F /  11.7 °C 30in /  1014.4hPa SSO 4.3mph /  6.9km/h 8mph /  12.9km/h 74.9% 0in /  0.0mm
00:49 61.2 °F /  16.2 °C 53.1 °F /  11.7 °C 30in /  1014.4hPa SSO 4mph /  6.5km/h 7.4mph /  11.9km/h 74.5% 0in /  0.0mm
00:54 61.2 °F /  16.2 °C 52.9 °F /  11.6 °C 30in /  1014.4hPa SSO 3.6mph /  5.8km/h 7mph /  11.3km/h 74% 0in /  0.0mm
00:59 61.2 °F /  16.2 °C 52.7 °F /  11.5 °C 30in /  1014.4hPa SSO 4mph /  6.5km/h 9.2mph /  14.8km/h 74% 0in /  0.0mm
01:04 61 °F /  16.1 °C 52.5 °F /  11.4 °C 30in /  1014.4hPa SSO 4.7mph /  7.6km/h 10.4mph /  16.7km/h 74% 0in /  0.0mm
01:09 60.8 °F /  16 °C 52.5 °F /  11.4 °C 30in /  1014.3hPa SSO 5.3mph /  8.5km/h 10mph /  16.1km/h 74.4% 0in /  0.0mm
01:14 60.6 °F /  15.9 °C 52.3 °F /  11.3 °C 30in /  1014.3hPa SSO 6.2mph /  10km/h 10.4mph /  16.7km/h 74% 0in /  0.0mm
01:19 60.6 °F /  15.9 °C 52.3 °F /  11.3 °C 30in /  1014.4hPa SSO 5.9mph /  9.5km/h 10mph /  16.1km/h 74% 0in /  0.0mm
01:24 60.6 °F /  15.9 °C 52.2 °F /  11.2 °C 30in /  1014.4hPa SO 5.4mph /  8.7km/h 8.1mph /  13km/h 73.9% 0in /  0.0mm
01:29 60.6 °F /  15.9 °C 52 °F /  11.1 °C 30in /  1014.4hPa SO 5mph /  8km/h 8mph /  12.9km/h 73.3% 0in /  0.0mm
01:34 60.6 °F /  15.9 °C 52 °F /  11.1 °C 30in /  1014.4hPa SSO 4.3mph /  6.9km/h 7mph /  11.3km/h 73% 0in /  0.0mm
01:39 60.6 °F /  15.9 °C 52 °F /  11.1 °C 30in /  1014.3hPa SO 4mph /  6.5km/h 7mph /  11.3km/h 73% 0in /  0.0mm
01:44 60.8 °F /  16 °C 52.2 °F /  11.2 °C 30in /  1014.3hPa SO 3.6mph /  5.8km/h 7mph /  11.3km/h 73% 0in /  0.0mm
01:49 60.8 °F /  16 °C 52.2 °F /  11.2 °C 30in /  1014.3hPa SSO 3.7mph /  6km/h 6.9mph /  11.1km/h 73% 0in /  0.0mm
01:54 60.8 °F /  16 °C 51.8 °F /  11 °C 29.9in /  1014.1hPa SSO 4mph /  6.5km/h 10.4mph /  16.7km/h 72.1% 0in /  0.0mm
01:59 60.8 °F /  16 °C 51.6 °F /  10.9 °C 29.9in /  1014.1hPa SSO 4.5mph /  7.2km/h 10mph /  16.1km/h 71.8% 0in /  0.0mm
02:04 60.8 °F /  16 °C 51.1 °F /  10.6 °C 29.9in /  1014.1hPa SSO 5.2mph /  8.4km/h 11.5mph /  18.5km/h 70.3% 0in /  0.0mm
02:09 60.8 °F /  16 °C 51.3 °F /  10.7 °C 29.9in /  1013.8hPa Sur 5.6mph /  9km/h 12mph /  19.3km/h 70.9% 0in /  0.0mm
02:14 60.8 °F /  16 °C 51.6 °F /  10.9 °C 29.9in /  1013.8hPa Sur 6.2mph /  10km/h 9.7mph /  15.6km/h 71.9% 0in /  0.0mm
02:19 60.6 °F /  15.9 °C 51.4 °F /  10.8 °C 29.9in /  1013.8hPa SSO 6.1mph /  9.8km/h 10mph /  16.1km/h 71.9% 0in /  0.0mm
02:24 60.6 °F /  15.9 °C 51.3 °F /  10.7 °C 29.9in /  1013.7hPa SSO 5.9mph /  9.5km/h 10mph /  16.1km/h 71% 0in /  0.0mm
02:29 60.6 °F /  15.9 °C 51.1 °F /  10.6 °C 29.9in /  1013.7hPa SSO 5.2mph /  8.4km/h 9.2mph /  14.8km/h 70.8% 0in /  0.0mm
02:34 61 °F /  16.1 °C 50.9 °F /  10.5 °C 29.9in /  1013.8hPa SO 4mph /  6.5km/h 9.2mph /  14.8km/h 69.8% 0in /  0.0mm
02:39 61 °F /  16.1 °C 50.7 °F /  10.4 °C 29.9in /  1013.8hPa SO 4.1mph /  6.6km/h 8mph /  12.9km/h 69% 0in /  0.0mm
02:44 61.2 °F /  16.2 °C 50.9 °F /  10.5 °C 29.9in /  1013.8hPa SO 4.3mph /  6.9km/h 9.2mph /  14.8km/h 69% 0in /  0.0mm
02:49 61 °F /  16.1 °C 50.4 °F /  10.2 °C 29.9in /  1013.8hPa SSO 4.7mph /  7.5km/h 9mph /  14.5km/h 68.1% 0in /  0.0mm
02:54 61 °F /  16.1 °C 50.4 °F /  10.2 °C 29.9in /  1013.6hPa SSO 5.2mph /  8.4km/h 9.7mph /  15.6km/h 68% 0in /  0.0mm
02:59 60.8 °F /  16 °C 50.2 °F /  10.1 °C 29.9in /  1013.6hPa SSO 5.5mph /  8.8km/h 10mph /  16.1km/h 68% 0in /  0.0mm
03:04 60.8 °F /  16 °C 50.2 °F /  10.1 °C 29.9in /  1013.6hPa SSO 5.9mph /  9.5km/h 9.2mph /  14.8km/h 67.8% 0in /  0.0mm
03:09 60.8 °F /  16 °C 49.8 °F /  9.9 °C 29.9in /  1013.4hPa SO 5.7mph /  9.2km/h 9mph /  14.5km/h 67.1% 0in /  0.0mm
03:14 61 °F /  16.1 °C 49.8 °F /  9.9 °C 29.9in /  1013.4hPa SSO 5.4mph /  8.7km/h 8.7mph /  14km/h 67% 0in /  0.0mm
03:19 61 °F /  16.1 °C 49.8 °F /  9.9 °C 29.9in /  1013.4hPa SO 5.2mph /  8.3km/h 9.2mph /  14.8km/h 66.7% 0in /  0.0mm
03:24 61.2 °F /  16.2 °C 49.6 °F /  9.8 °C 29.9in /  1013.4hPa SO 4.7mph /  7.6km/h 9mph /  14.5km/h 66% 0in /  0.0mm
03:29 61.2 °F /  16.2 °C 49.6 °F /  9.8 °C 29.9in /  1013.4hPa OSO 4.7mph /  7.6km/h 8mph /  12.9km/h 66% 0in /  0.0mm
03:34 61.2 °F /  16.2 °C 49.6 °F /  9.8 °C 29.9in /  1013.4hPa SO 4.7mph /  7.6km/h 8.5mph /  13.7km/h 66% 0in /  0.0mm
03:39 61.2 °F /  16.2 °C 49.6 °F /  9.8 °C 29.9in /  1013.3hPa SO 4.5mph /  7.3km/h 9mph /  14.5km/h 66% 0in /  0.0mm
03:44 61 °F /  16.1 °C 49.5 °F /  9.7 °C 29.9in /  1013.3hPa SO 4.3mph /  6.9km/h 7mph /  11.3km/h 66% 0in /  0.0mm
03:49 61 °F /  16.1 °C 49.5 °F /  9.7 °C 29.9in /  1013.3hPa SSO 4mph /  6.5km/h 6mph /  9.7km/h 66% 0in /  0.0mm
03:54 61 °F /  16.1 °C 49.5 °F /  9.7 °C 29.9in /  1013.3hPa Sur 3.6mph /  5.8km/h 10.7mph /  17.2km/h 66% 0in /  0.0mm
03:59 61 °F /  16.1 °C 49.5 °F /  9.7 °C 29.9in /  1013.3hPa SSO 4.2mph /  6.8km/h 11mph /  17.7km/h 66% 0in /  0.0mm
04:04 60.8 °F /  16 °C 49.5 °F /  9.7 °C 29.9in /  1013.3hPa SSO 5.2mph /  8.4km/h 10mph /  16.1km/h 66% 0in /  0.0mm
04:09 60.8 °F /  16 °C 49.3 °F /  9.6 °C 29.9in /  1013.2hPa SSO 5mph /  8.1km/h 8mph /  12.9km/h 66.1% 0in /  0.0mm
04:14 60.6 °F /  15.9 °C 49.3 °F /  9.6 °C 29.9in /  1013.2hPa SSO 4.7mph /  7.6km/h 8.1mph /  13km/h 66.1% 0in /  0.0mm
04:19 60.6 °F /  15.9 °C 49.3 °F /  9.6 °C 29.9in /  1013.2hPa SSO 4.3mph /  6.9km/h 8mph /  12.9km/h 66% 0in /  0.0mm
04:24 60.6 °F /  15.9 °C 48.9 °F /  9.4 °C 29.9in /  1013.2hPa SSO 3.6mph /  5.8km/h 9.2mph /  14.8km/h 65.3% 0in /  0.0mm
04:29 60.6 °F /  15.9 °C 48.7 °F /  9.3 °C 29.9in /  1013.2hPa SO 4mph /  6.4km/h 9mph /  14.5km/h 65% 0in /  0.0mm
04:34 60.6 °F /  15.9 °C 48.7 °F /  9.3 °C 29.9in /  1013.2hPa SSO 4.7mph /  7.6km/h 8mph /  12.9km/h 65% 0in /  0.0mm
04:39 60.6 °F /  15.9 °C 48.6 °F /  9.2 °C 29.9in /  1013.2hPa SO 4.4mph /  7.1km/h 7mph /  11.3km/h 64.5% 0in /  0.0mm
04:44 60.6 °F /  15.9 °C 48.4 °F /  9.1 °C 29.9in /  1013.2hPa SSO 4mph /  6.5km/h 6.9mph /  11.1km/h 64% 0in /  0.0mm
04:49 60.6 °F /  15.9 °C 48.6 °F /  9.2 °C 29.9in /  1013.2hPa SSO 4mph /  6.5km/h 7mph /  11.3km/h 64.3% 0in /  0.0mm
04:54 60.8 °F /  16 °C 48.4 °F /  9.1 °C 29.9in /  1013.2hPa SO 4mph /  6.5km/h 6.9mph /  11.1km/h 64% 0in /  0.0mm
04:59 60.8 °F /  16 °C 48.6 °F /  9.2 °C 29.9in /  1013.2hPa SO 4mph /  6.5km/h 7mph /  11.3km/h 64% 0in /  0.0mm
05:04 60.8 °F /  16 °C 48.4 °F /  9.1 °C 29.9in /  1013.2hPa SO 4mph /  6.5km/h 6mph /  9.7km/h 63.8% 0in /  0.0mm
05:09 60.8 °F /  16 °C 48.2 °F /  9 °C 29.9in /  1013.2hPa SO 3.6mph /  5.8km/h 6mph /  9.7km/h 63.3% 0in /  0.0mm
05:14 60.8 °F /  16 °C 48 °F /  8.9 °C 29.9in /  1013.2hPa SO 2.9mph /  4.7km/h 6mph /  9.7km/h 63% 0in /  0.0mm
05:19 60.6 °F /  15.9 °C 48.2 °F /  9 °C 29.9in /  1013.2hPa SO 2.5mph /  4km/h 5mph /  8km/h 63.5% 0in /  0.0mm
05:24 60.6 °F /  15.9 °C 48.9 °F /  9.4 °C 29.9in /  1013.2hPa SO 1.8mph /  2.9km/h 3mph /  4.8km/h 65.1% 0in /  0.0mm
05:29 60.6 °F /  15.9 °C 48.6 °F /  9.2 °C 29.9in /  1013.2hPa SO 1.1mph /  1.8km/h 5.2mph /  8.4km/h 64.4% 0in /  0.0mm
05:34 60.6 °F /  15.9 °C 47.8 °F /  8.8 °C 29.9in /  1013.2hPa Calm   5.9mph /  9.5km/h 63% 0in /  0.0mm
05:39 60.6 °F /  15.9 °C 47.8 °F /  8.8 °C 29.9in /  1013.2hPa SO 1.1mph /  1.8km/h 6mph /  9.7km/h 63% 0in /  0.0mm
05:44 60.6 °F /  15.9 °C 47.8 °F /  8.8 °C 29.9in /  1013.2hPa SO 3.1mph /  5km/h 5.9mph /  9.5km/h 63% 0in /  0.0mm
05:49 60.6 °F /  15.9 °C 47.8 °F /  8.8 °C 29.9in /  1013.2hPa SO 3.3mph /  5.3km/h 6mph /  9.7km/h 63% 0in /  0.0mm
05:54 60.4 °F /  15.8 °C 47.8 °F /  8.8 °C 29.9in /  1013.1hPa SO 3.6mph /  5.8km/h 6mph /  9.7km/h 63% 0in /  0.0mm
05:59 60.4 °F /  15.8 °C 47.8 °F /  8.8 °C 29.9in /  1013.1hPa SO 3.3mph /  5.3km/h 5.2mph /  8.4km/h 63% 0in /  0.0mm
06:04 60.4 °F /  15.8 °C 47.8 °F /  8.8 °C 29.9in /  1013.1hPa SO 2.9mph /  4.7km/h 5.4mph /  8.7km/h 63% 0in /  0.0mm
06:09 60.4 °F /  15.8 °C 47.8 °F /  8.8 °C 29.9in /  1013.1hPa SSO 3.2mph /  5.1km/h 6mph /  9.7km/h 63% 0in /  0.0mm
06:14 60.3 °F /  15.7 °C 47.7 °F /  8.7 °C 29.9in /  1013.1hPa SSO 3.6mph /  5.8km/h 5.8mph /  9.3km/h 63% 0in /  0.0mm
06:19 60.4 °F /  15.8 °C 47.8 °F /  8.8 °C 29.9in /  1013.2hPa SSO 3.6mph /  5.8km/h 6.2mph /  10km/h 63% 0in /  0.0mm
06:24 60.3 °F /  15.7 °C 47.7 °F /  8.7 °C 29.9in /  1013.2hPa SSO 3.6mph /  5.8km/h 8.1mph /  13km/h 63% 0in /  0.0mm
06:29 60.3 °F /  15.7 °C 47.7 °F /  8.7 °C 29.9in /  1013.2hPa SSO 4mph /  6.5km/h 8.5mph /  13.7km/h 63% 0in /  0.0mm
06:34 60.1 °F /  15.6 °C 47.5 °F /  8.6 °C 29.9in /  1013.2hPa SO 4.7mph /  7.6km/h 9.2mph /  14.8km/h 62.9% 0in /  0.0mm
06:39 60.1 °F /  15.6 °C 47.5 °F /  8.6 °C 29.9in /  1013.2hPa SO 4.9mph /  7.9km/h 9mph /  14.5km/h 63% 0in /  0.0mm
06:44 60.1 °F /  15.6 °C 47.5 °F /  8.6 °C 29.9in /  1013.2hPa SSO 5.2mph /  8.4km/h 6mph /  9.7km/h 63% 0in /  0.0mm
06:49 60.1 °F /  15.6 °C 47.7 °F /  8.7 °C 29.9in /  1013.3hPa SSO 4.6mph /  7.4km/h 6mph /  9.7km/h 63.4% 0in /  0.0mm
06:54 60.1 °F /  15.6 °C 47.7 °F /  8.7 °C 29.9in /  1013.3hPa Sur 3.6mph /  5.8km/h 6mph /  9.7km/h 63.6% 0in /  0.0mm
06:59 60.1 °F /  15.6 °C 47.8 °F /  8.8 °C 29.9in /  1013.3hPa Sur 3.7mph /  6km/h 8.5mph /  13.7km/h 64% 0in /  0.0mm
07:04 60.1 °F /  15.6 °C 47.8 °F /  8.8 °C 29.9in /  1013.4hPa Sur 4mph /  6.5km/h 9mph /  14.5km/h 64% 0in /  0.0mm
07:09 60.1 °F /  15.6 °C 47.8 °F /  8.8 °C 29.9in /  1013.4hPa SSO 4.1mph /  6.6km/h 8.5mph /  13.7km/h 64% 0in /  0.0mm
07:14 60.1 °F /  15.6 °C 47.8 °F /  8.8 °C 29.9in /  1013.4hPa SSO 4.3mph /  6.9km/h 9mph /  14.5km/h 64% 0in /  0.0mm
07:19 60.1 °F /  15.6 °C 48 °F /  8.9 °C 29.9in /  1013.4hPa Sur 4.2mph /  6.8km/h 7mph /  11.3km/h 64.3% 0in /  0.0mm
07:24 60.1 °F /  15.6 °C 48.2 °F /  9 °C 29.9in /  1013.4hPa Sur 4mph /  6.5km/h 9.7mph /  15.6km/h 64.6% 0in /  0.0mm
07:29 60.1 °F /  15.6 °C 48.4 °F /  9.1 °C 29.9in /  1013.4hPa SSO 4.7mph /  7.6km/h 10mph /  16.1km/h 65% 0in /  0.0mm
07:34 60.1 °F /  15.6 °C 48.2 °F /  9 °C 29.9in /  1013.4hPa SSO 5.9mph /  9.5km/h 10mph /  16.1km/h 64.8% 0in /  0.0mm
07:39 60.1 °F /  15.6 °C 48 °F /  8.9 °C 29.9in /  1013.4hPa SSO 5.7mph /  9.2km/h 9mph /  14.5km/h 64.1% 0in /  0.0mm
07:44 60.3 °F /  15.7 °C 48 °F /  8.9 °C 29.9in /  1013.4hPa SSO 5.4mph /  8.7km/h 8mph /  12.9km/h 64% 0in /  0.0mm
07:49 60.3 °F /  15.7 °C 48 °F /  8.9 °C 29.9in /  1013.6hPa SSO 5.2mph /  8.3km/h 8.5mph /  13.7km/h 64% 0in /  0.0mm
07:54 60.4 °F /  15.8 °C 48 °F /  8.9 °C 29.9in /  1013.6hPa SO 4.7mph /  7.6km/h 9mph /  14.5km/h 64% 0in /  0.0mm
07:59 60.4 °F /  15.8 °C 48 °F /  8.9 °C 29.9in /  1013.6hPa SO 4.3mph /  6.9km/h 7mph /  11.3km/h 63.6% 0in /  0.0mm
08:04 60.4 °F /  15.8 °C 47.8 °F /  8.8 °C 29.9in /  1013.8hPa SO 3.6mph /  5.8km/h 6.9mph /  11.1km/h 63% 0in /  0.0mm
08:09 60.6 °F /  15.9 °C 47.8 °F /  8.8 °C 29.9in /  1013.8hPa Sur 3.7mph /  6km/h 7mph /  11.3km/h 63% 0in /  0.0mm
08:14 60.6 °F /  15.9 °C 48 °F /  8.9 °C 29.9in /  1013.8hPa SSO 4mph /  6.5km/h 6.2mph /  10km/h 63% 0in /  0.0mm
08:19 61 °F /  16.1 °C 48 °F /  8.9 °C 29.9in /  1014.0hPa SSO 3.6mph /  5.8km/h 8.1mph /  13km/h 62.4% 0in /  0.0mm
08:24 61 °F /  16.1 °C 47.8 °F /  8.8 °C 29.9in /  1014.0hPa SSO 2.9mph /  4.7km/h 8.5mph /  13.7km/h 62% 0in /  0.0mm
08:29 61 °F /  16.1 °C 47.8 °F /  8.8 °C 29.9in /  1014.0hPa SSO 4mph /  6.4km/h 9.2mph /  14.8km/h 62% 0in /  0.0mm
08:34 61 °F /  16.1 °C 48 °F /  8.9 °C 29.9in /  1014.0hPa SSO 5.9mph /  9.5km/h 9.2mph /  14.8km/h 62.3% 0in /  0.0mm
08:39 61 °F /  16.1 °C 48.2 °F /  9 °C 29.9in /  1014.0hPa SSO 6mph /  9.7km/h 9.2mph /  14.8km/h 62.8% 0in /  0.0mm
08:44 61 °F /  16.1 °C 48 °F /  8.9 °C 29.9in /  1014.0hPa SSO 6.2mph /  10km/h 9mph /  14.5km/h 62.3% 0in /  0.0mm
08:49 61.2 °F /  16.2 °C 48.2 °F /  9 °C 29.9in /  1014.1hPa Sur 6.1mph /  9.8km/h 11.5mph /  18.5km/h 62.2% 0in /  0.0mm
08:54 61.3 °F /  16.3 °C 48.4 °F /  9.1 °C 29.9in /  1014.1hPa Sur 5.9mph /  9.5km/h 12mph /  19.3km/h 62.2% 0in /  0.0mm
08:59 61.5 °F /  16.4 °C 48.4 °F /  9.1 °C 29.9in /  1014.1hPa SSO 6.1mph /  9.8km/h 10mph /  16.1km/h 62% 0in /  0.0mm
09:04 61.7 °F /  16.5 °C 48.9 °F /  9.4 °C 29.9in /  1014.1hPa SO 6.4mph /  10.3km/h 10mph /  16.1km/h 62.8% 0in /  0.0mm
09:09 62.1 °F /  16.7 °C 49.1 °F /  9.5 °C 29.9in /  1014.0hPa SSO 6.2mph /  10km/h 9.2mph /  14.8km/h 62.7% 0in /  0.0mm
09:14 62.2 °F /  16.8 °C 49.1 °F /  9.5 °C 29.9in /  1014.0hPa SSO 5.9mph /  9.5km/h 9.2mph /  14.8km/h 62.1% 0in /  0.0mm
09:19 62.4 °F /  16.9 °C 49.1 °F /  9.5 °C 30in /  1014.3hPa SO 5.7mph /  9.1km/h 9mph /  14.5km/h 62% 0in /  0.0mm
09:24 62.6 °F /  17 °C 49.5 °F /  9.7 °C 30in /  1014.3hPa SSO 5.2mph /  8.4km/h 7.6mph /  12.2km/h 61.9% 0in /  0.0mm
09:29 63 °F /  17.2 °C 49.3 °F /  9.6 °C 30in /  1014.3hPa SSO 5mph /  8.1km/h 8.5mph /  13.7km/h 61.1% 0in /  0.0mm
09:34 63 °F /  17.2 °C 49.6 °F /  9.8 °C 30in /  1014.4hPa OSO 4.7mph /  7.6km/h 9mph /  14.5km/h 61.6% 0in /  0.0mm
09:39 63.3 °F /  17.4 °C 49.6 °F /  9.8 °C 30in /  1014.4hPa SO 4.5mph /  7.2km/h 7mph /  11.3km/h 61% 0in /  0.0mm
09:44 63.9 °F /  17.7 °C 50 °F /  10 °C 30in /  1014.4hPa OSO 4mph /  6.5km/h 7mph /  11.3km/h 60.7% 0in /  0.0mm
09:49 64.4 °F /  18 °C 50.2 °F /  10.1 °C 30in /  1014.4hPa OSO 3.9mph /  6.2km/h 7.6mph /  12.2km/h 59.9% 0in /  0.0mm
09:54 64.8 °F /  18.2 °C 50.4 °F /  10.2 °C 30in /  1014.3hPa SO 3.6mph /  5.8km/h 9.2mph /  14.8km/h 59.4% 0in /  0.0mm
09:59 64.9 °F /  18.3 °C 50.4 °F /  10.2 °C 30in /  1014.3hPa Oeste 4.2mph /  6.8km/h 9.2mph /  14.8km/h 59.1% 0in /  0.0mm
10:04 64.9 °F /  18.3 °C 50.7 °F /  10.4 °C 30in /  1014.6hPa Oeste 5.2mph /  8.4km/h 10.2mph /  16.4km/h 59.6% 0in /  0.0mm
10:09 65.1 °F /  18.4 °C 50.4 °F /  10.2 °C 30in /  1014.6hPa Oeste 4.8mph /  7.8km/h 10.4mph /  16.7km/h 59% 0in /  0.0mm
10:14 65.1 °F /  18.4 °C 50.5 °F /  10.3 °C 30in /  1014.6hPa Oeste 4.3mph /  6.9km/h 10.2mph /  16.4km/h 59.1% 0in /  0.0mm
10:19 65.3 °F /  18.5 °C 50.7 °F /  10.4 °C 30in /  1014.6hPa Oeste 4.9mph /  7.9km/h 11.5mph /  18.5km/h 59% 0in /  0.0mm
10:24 65.3 °F /  18.5 °C 50.7 °F /  10.4 °C 30in /  1014.6hPa Oeste 5.9mph /  9.5km/h 12mph /  19.3km/h 59% 0in /  0.0mm
10:29 65.1 °F /  18.4 °C 50.5 °F /  10.3 °C 30in /  1014.6hPa OSO 5.9mph /  9.5km/h 12mph /  19.3km/h 59% 0in /  0.0mm
10:34 65.3 °F /  18.5 °C 50.5 °F /  10.3 °C 30in /  1014.6hPa Oeste 5.9mph /  9.5km/h 10mph /  16.1km/h 58.8% 0in /  0.0mm
10:39 65.7 °F /  18.7 °C 50.9 °F /  10.5 °C 30in /  1014.6hPa Oeste 5.3mph /  8.5km/h 8.1mph /  13km/h 59% 0in /  0.0mm
10:44 65.8 °F /  18.8 °C 50.7 °F /  10.4 °C 30in /  1014.6hPa ONO 4.3mph /  6.9km/h 8.1mph /  13km/h 58.1% 0in /  0.0mm
10:49 66 °F /  18.9 °C 50.7 °F /  10.4 °C 30in /  1014.7hPa Oeste 4.3mph /  6.9km/h 8mph /  12.9km/h 57.9% 0in /  0.0mm
10:54 66.4 °F /  19.1 °C 50.9 °F /  10.5 °C 30in /  1014.7hPa ONO 4.3mph /  6.9km/h 10mph /  16.1km/h 57.6% 0in /  0.0mm
10:59 66.4 °F /  19.1 °C 50.7 °F /  10.4 °C 30in /  1014.7hPa ONO 4.7mph /  7.5km/h 11.5mph /  18.5km/h 56.9% 0in /  0.0mm
11:04 66.6 °F /  19.2 °C 50.7 °F /  10.4 °C 30in /  1014.8hPa ONO 5.2mph /  8.4km/h 12mph /  19.3km/h 56.8% 0in /  0.0mm
11:09 66.6 °F /  19.2 °C 50.7 °F /  10.4 °C 30in /  1014.8hPa Oeste 5.3mph /  8.5km/h 9.2mph /  14.8km/h 57% 0in /  0.0mm
11:14 66.7 °F /  19.3 °C 50.9 °F /  10.5 °C 30in /  1014.8hPa ONO 5.4mph /  8.7km/h 10.7mph /  17.2km/h 56.8% 0in /  0.0mm
11:19 66.7 °F /  19.3 °C 50.4 °F /  10.2 °C 30in /  1014.9hPa ONO 5.4mph /  8.7km/h 11mph /  17.7km/h 55.7% 0in /  0.0mm
11:24 66.7 °F /  19.3 °C 50.5 °F /  10.3 °C 30in /  1014.9hPa ONO 5.4mph /  8.7km/h 10mph /  16.1km/h 56% 0in /  0.0mm
11:29 66.6 °F /  19.2 °C 50.4 °F /  10.2 °C 30in /  1014.9hPa ONO 5.6mph /  9km/h 9.2mph /  14.8km/h 56% 0in /  0.0mm
11:34 66.7 °F /  19.3 °C 50.5 °F /  10.3 °C 30in /  1014.9hPa ONO 5.9mph /  9.5km/h 9.2mph /  14.8km/h 56.2% 0in /  0.0mm
11:39 66.7 °F /  19.3 °C 50.5 °F /  10.3 °C 30in /  1014.9hPa Oeste 5.5mph /  8.8km/h 9mph /  14.5km/h 56% 0in /  0.0mm
11:44 66.7 °F /  19.3 °C 50.5 °F /  10.3 °C 30in /  1014.9hPa ONO 4.7mph /  7.6km/h 9mph /  14.5km/h 56% 0in /  0.0mm
11:49 66.9 °F /  19.4 °C 50.7 °F /  10.4 °C 30in /  1015.0hPa ONO 4.7mph /  7.6km/h 9mph /  14.5km/h 56% 0in /  0.0mm
11:54 67.1 °F /  19.5 °C 50.9 °F /  10.5 °C 30in /  1015.0hPa ONO 4.7mph /  7.6km/h 8.5mph /  13.7km/h 56% 0in /  0.0mm
11:59 67.5 °F /  19.7 °C 51.3 °F /  10.7 °C 30in /  1015.0hPa OSO 4.4mph /  7.1km/h 9mph /  14.5km/h 56% 0in /  0.0mm
12:04 68 °F /  20 °C 51.6 °F /  10.9 °C 30in /  1015.0hPa Sur 4mph /  6.5km/h 7.6mph /  12.2km/h 55.6% 0in /  0.0mm
12:09 68.9 °F /  20.5 °C 51.6 °F /  10.9 °C 30in /  1014.9hPa NO 3.7mph /  5.9km/h 8.1mph /  13km/h 54.1% 0in /  0.0mm
12:14 69.4 °F /  20.8 °C 51.3 °F /  10.7 °C 30in /  1014.9hPa ONO 3.1mph /  5km/h 8.1mph /  13km/h 52.3% 0in /  0.0mm
12:19 69.3 °F /  20.7 °C 51.4 °F /  10.8 °C 30in /  1015.0hPa Oeste 3.7mph /  5.9km/h 8.1mph /  13km/h 52.9% 0in /  0.0mm
12:24 69.3 °F /  20.7 °C 51.3 °F /  10.7 °C 30in /  1015.0hPa ONO 4.7mph /  7.6km/h 8mph /  12.9km/h 52.8% 0in /  0.0mm
12:29 69.3 °F /  20.7 °C 51.6 °F /  10.9 °C 30in /  1015.0hPa NO 4.1mph /  6.6km/h 7mph /  11.3km/h 53.4% 0in /  0.0mm
12:34 69.4 °F /  20.8 °C 51.4 °F /  10.8 °C 30in /  1015.0hPa Oeste 3.1mph /  5km/h 7mph /  11.3km/h 52.8% 0in /  0.0mm
12:39 69.4 °F /  20.8 °C 51.6 °F /  10.9 °C 30in /  1015.0hPa OSO 3.3mph /  5.3km/h 7mph /  11.3km/h 53% 0in /  0.0mm
12:44 69.8 °F /  21 °C 51.6 °F /  10.9 °C 30in /  1015.0hPa SO 3.6mph /  5.8km/h 6.9mph /  11.1km/h 52.6% 0in /  0.0mm
12:49 70.3 °F /  21.3 °C 51.8 °F /  11 °C 30in /  1015.0hPa ESE 3.4mph /  5.4km/h 7mph /  11.3km/h 51.9% 0in /  0.0mm
12:54 70.9 °F /  21.6 °C 51.6 °F /  10.9 °C 30in /  1015.0hPa North 2.9mph /  4.7km/h 11.2mph /  18km/h 50.6% 0in /  0.0mm
12:59 70.3 °F /  21.3 °C 51.4 °F /  10.8 °C 30in /  1015.0hPa NE 3.9mph /  6.2km/h 12mph /  19.3km/h 51% 0in /  0.0mm
13:04 70.3 °F /  21.3 °C 51.6 °F /  10.9 °C 30in /  1015.0hPa NE 5.4mph /  8.7km/h 9.7mph /  15.6km/h 51.6% 0in /  0.0mm
13:09 70.7 °F /  21.5 °C 51.6 °F /  10.9 °C 30in /  1015.0hPa NNE 5.6mph /  9km/h 12.7mph /  20.4km/h 50.9% 0in /  0.0mm
13:14 70.9 °F /  21.6 °C 51.4 °F /  10.8 °C 30in /  1015.0hPa North 5.9mph /  9.5km/h 13mph /  20.9km/h 50.2% 0in /  0.0mm
13:19 70.9 °F /  21.6 °C 51.3 °F /  10.7 °C 30in /  1015.0hPa North 5.3mph /  8.6km/h 11.2mph /  18km/h 50% 0in /  0.0mm
13:24 70.5 °F /  21.4 °C 51.1 °F /  10.6 °C 30in /  1015.0hPa NNE 4.3mph /  6.9km/h 12mph /  19.3km/h 50% 0in /  0.0mm
13:29 70.5 °F /  21.4 °C 51.4 °F /  10.8 °C 30in /  1015.0hPa North 4.7mph /  7.5km/h 10mph /  16.1km/h 50.7% 0in /  0.0mm
13:34 70.5 °F /  21.4 °C 51.6 °F /  10.9 °C 30in /  1015.0hPa North 5.2mph /  8.4km/h 9.2mph /  14.8km/h 51.1% 0in /  0.0mm
13:39 70.5 °F /  21.4 °C 51.6 °F /  10.9 °C 30in /  1014.9hPa North 5mph /  8.1km/h 9.2mph /  14.8km/h 51.1% 0in /  0.0mm
13:44 70.7 °F /  21.5 °C 51.6 °F /  10.9 °C 30in /  1014.9hPa NNE 4.7mph /  7.6km/h 11.4mph /  18.3km/h 51% 0in /  0.0mm
13:49 70.5 °F /  21.4 °C 51.4 °F /  10.8 °C 30in /  1014.9hPa NNE 5.1mph /  8.2km/h 12mph /  19.3km/h 50.7% 0in /  0.0mm
13:54 70.3 °F /  21.3 °C 51.3 °F /  10.7 °C 30in /  1014.8hPa NNE 5.9mph /  9.5km/h 12mph /  19.3km/h 51% 0in /  0.0mm
13:59 70.3 °F /  21.3 °C 51.3 °F /  10.7 °C 30in /  1014.8hPa NE 6mph /  9.7km/h 12mph /  19.3km/h 51% 0in /  0.0mm
14:04 70.3 °F /  21.3 °C 51.3 °F /  10.7 °C 30in /  1014.9hPa NNE 6.2mph /  10km/h 12.7mph /  20.4km/h 51% 0in /  0.0mm
14:09 70.5 °F /  21.4 °C 51.3 °F /  10.7 °C 30in /  1014.9hPa North 6.1mph /  9.8km/h 13mph /  20.9km/h 50.3% 0in /  0.0mm
14:14 70.5 °F /  21.4 °C 50.5 °F /  10.3 °C 30in /  1014.9hPa NE 5.9mph /  9.5km/h 11mph /  17.7km/h 49.3% 0in /  0.0mm
14:19 70.5 °F /  21.4 °C 50.7 °F /  10.4 °C 30in /  1014.9hPa NE 6mph /  9.7km/h 10mph /  16.1km/h 49.7% 0in /  0.0mm
14:24 70.7 °F /  21.5 °C 50.9 °F /  10.5 °C 30in /  1014.8hPa NNE 6.2mph /  10km/h 8.5mph /  13.7km/h 49.3% 0in /  0.0mm
14:29 71.1 °F /  21.7 °C 50.7 °F /  10.4 °C 30in /  1014.8hPa NE 5.9mph /  9.5km/h 11.8mph /  19km/h 48.6% 0in /  0.0mm
14:34 71.2 °F /  21.8 °C 50.5 °F /  10.3 °C 30in /  1014.8hPa NE 5.4mph /  8.7km/h 12mph /  19.3km/h 48% 0in /  0.0mm
14:39 71.2 °F /  21.8 °C 50.5 °F /  10.3 °C 30in /  1014.8hPa NE 5.3mph /  8.6km/h 12.7mph /  20.4km/h 48.1% 0in /  0.0mm
14:44 71.2 °F /  21.8 °C 50.7 °F /  10.4 °C 30in /  1014.8hPa NE 5.2mph /  8.4km/h 13.8mph /  22.2km/h 48.3% 0in /  0.0mm
14:49 71.2 °F /  21.8 °C 51.1 °F /  10.6 °C 30in /  1014.8hPa NE 5.8mph /  9.4km/h 14mph /  22.5km/h 48.9% 0in /  0.0mm
14:54 71.4 °F /  21.9 °C 51.4 °F /  10.8 °C 30in /  1014.6hPa ENE 6.9mph /  11.1km/h 12.7mph /  20.4km/h 49.3% 0in /  0.0mm
14:59 71.6 °F /  22 °C 51.6 °F /  10.9 °C 30in /  1014.6hPa ENE 6.7mph /  10.8km/h 13mph /  20.9km/h 49.3% 0in /  0.0mm
15:04 72 °F /  22.2 °C 51.4 °F /  10.8 °C 30in /  1014.6hPa NE 6.4mph /  10.3km/h 16.3mph /  26.2km/h 48.3% 0in /  0.0mm
15:09 72 °F /  22.2 °C 51.6 °F /  10.9 °C 30in /  1014.6hPa ENE 7.2mph /  11.6km/h 16.1mph /  25.9km/h 48.7% 0in /  0.0mm
15:14 72 °F /  22.2 °C 51.8 °F /  11 °C 30in /  1014.6hPa ENE 8.5mph /  13.7km/h 17.3mph /  27.8km/h 49.1% 0in /  0.0mm
15:19 71.8 °F /  22.1 °C 52 °F /  11.1 °C 30in /  1014.6hPa NE 8.3mph /  13.4km/h 17mph /  27.4km/h 49.8% 0in /  0.0mm
15:24 71.8 °F /  22.1 °C 52 °F /  11.1 °C 30in /  1014.6hPa NE 8.1mph /  13km/h 15mph /  24.1km/h 49.9% 0in /  0.0mm
15:29 71.4 °F /  21.9 °C 51.8 °F /  11 °C 30in /  1014.6hPa NE 8.3mph /  13.4km/h 19mph /  30.6km/h 49.8% 0in /  0.0mm
15:34 71.6 °F /  22 °C 51.6 °F /  10.9 °C 30in /  1014.6hPa NE 8.7mph /  14km/h 19mph /  30.6km/h 49.6% 0in /  0.0mm
15:39 71.4 °F /  21.9 °C 51.1 °F /  10.6 °C 30in /  1014.6hPa NE 8.7mph /  14km/h 18.5mph /  29.8km/h 48.6% 0in /  0.0mm
15:44 71.4 °F /  21.9 °C 51.6 °F /  10.9 °C 30in /  1014.6hPa NE 8.7mph /  14km/h 19mph /  30.6km/h 49.4% 0in /  0.0mm
15:49 71.8 °F /  22.1 °C 51.8 °F /  11 °C 30in /  1014.6hPa NE 9.2mph /  14.8km/h 16.1mph /  25.9km/h 49.4% 0in /  0.0mm
15:54 71.6 °F /  22 °C 51.4 °F /  10.8 °C 30in /  1014.5hPa NE 10mph /  16.1km/h 15.2mph /  24.5km/h 49% 0in /  0.0mm
15:59 71.4 °F /  21.9 °C 51.4 °F /  10.8 °C 30in /  1014.5hPa NE 9.5mph /  15.3km/h 15mph /  24.1km/h 49.2% 0in /  0.0mm
16:04 71.6 °F /  22 °C 51.4 °F /  10.8 °C 30in /  1014.6hPa ENE 8.7mph /  14km/h 13mph /  20.9km/h 49% 0in /  0.0mm
16:09 71.4 °F /  21.9 °C 51.3 °F /  10.7 °C 30in /  1014.6hPa NE 8.3mph /  13.4km/h 15mph /  24.1km/h 49% 0in /  0.0mm
16:14 71.2 °F /  21.8 °C 51.1 °F /  10.6 °C 30in /  1014.6hPa NE 7.6mph /  12.2km/h 15mph /  24.1km/h 49.2% 0in /  0.0mm
16:19 71.2 °F /  21.8 °C 51.3 °F /  10.7 °C 30in /  1014.6hPa NE 8mph /  12.8km/h 14mph /  22.5km/h 49.5% 0in /  0.0mm
16:24 71.4 °F /  21.9 °C 51.3 °F /  10.7 °C 30in /  1014.4hPa NE 8.5mph /  13.7km/h 13.8mph /  22.2km/h 49% 0in /  0.0mm
16:29 71.2 °F /  21.8 °C 51.1 °F /  10.6 °C 30in /  1014.4hPa ENE 7.6mph /  12.2km/h 14mph /  22.5km/h 49% 0in /  0.0mm
16:34 71.6 °F /  22 °C 51.3 °F /  10.7 °C 30in /  1014.4hPa NE 6.2mph /  10km/h 12.7mph /  20.4km/h 48.8% 0in /  0.0mm
16:39 71.6 °F /  22 °C 51.3 °F /  10.7 °C 30in /  1014.4hPa NE 6.3mph /  10.1km/h 13mph /  20.9km/h 48.8% 0in /  0.0mm
16:44 71.4 °F /  21.9 °C 51.3 °F /  10.7 °C 30in /  1014.4hPa ENE 6.4mph /  10.3km/h 13mph /  20.9km/h 49% 0in /  0.0mm
16:49 71.4 °F /  21.9 °C 51.4 °F /  10.8 °C 30in /  1014.4hPa ENE 6.6mph /  10.6km/h 12mph /  19.3km/h 49.5% 0in /  0.0mm
16:54 71.2 °F /  21.8 °C 51.6 °F /  10.9 °C 30in /  1014.4hPa ENE 6.9mph /  11.1km/h 11.8mph /  19km/h 50% 0in /  0.0mm
16:59 71.2 °F /  21.8 °C 51.6 °F /  10.9 °C 30in /  1014.4hPa ENE 6.5mph /  10.4km/h 13mph /  20.9km/h 50% 0in /  0.0mm
17:04 71.1 °F /  21.7 °C 51.8 °F /  11 °C 30in /  1014.5hPa NE 5.9mph /  9.5km/h 13mph /  20.9km/h 50.5% 0in /  0.0mm
17:09 71.1 °F /  21.7 °C 52 °F /  11.1 °C 30in /  1014.5hPa NE 6mph /  9.7km/h 13mph /  20.9km/h 51% 0in /  0.0mm
17:14 71.1 °F /  21.7 °C 52.2 °F /  11.2 °C 30in /  1014.5hPa ENE 6.2mph /  10km/h 12mph /  19.3km/h 51% 0in /  0.0mm
17:19 71.4 °F /  21.9 °C 52.2 °F /  11.2 °C 30in /  1014.5hPa NE 6.2mph /  10km/h 10.7mph /  17.2km/h 50.7% 0in /  0.0mm
17:24 71.8 °F /  22.1 °C 52.2 °F /  11.2 °C 30in /  1014.4hPa NE 6.2mph /  10km/h 11.5mph /  18.5km/h 50.1% 0in /  0.0mm
17:29 71.8 °F /  22.1 °C 52 °F /  11.1 °C 30in /  1014.4hPa NE 6.2mph /  10km/h 12mph /  19.3km/h 49.7% 0in /  0.0mm
17:34 71.8 °F /  22.1 °C 52.2 °F /  11.2 °C 30in /  1014.5hPa NE 6.2mph /  10km/h 12.3mph /  19.8km/h 49.9% 0in /  0.0mm
17:39 72 °F /  22.2 °C 52 °F /  11.1 °C 30in /  1014.5hPa NE 5.9mph /  9.5km/h 13mph /  20.9km/h 49.7% 0in /  0.0mm
17:44 72.1 °F /  22.3 °C 52 °F /  11.1 °C 30in /  1014.5hPa Este 5.4mph /  8.7km/h 12mph /  19.3km/h 49% 0in /  0.0mm
17:49 72.7 °F /  22.6 °C 52.2 °F /  11.2 °C 30in /  1014.5hPa ENE 5.6mph /  9km/h 10mph /  16.1km/h 48.5% 0in /  0.0mm
17:54 73 °F /  22.8 °C 52 °F /  11.1 °C 30in /  1014.5hPa ENE 5.9mph /  9.5km/h 9.7mph /  15.6km/h 47.5% 0in /  0.0mm
17:59 73 °F /  22.8 °C 51.3 °F /  10.7 °C 30in /  1014.5hPa NE 5.7mph /  9.1km/h 10mph /  16.1km/h 46.3% 0in /  0.0mm
18:04 72.9 °F /  22.7 °C 51.3 °F /  10.7 °C 30in /  1014.5hPa NE 5.2mph /  8.4km/h 9mph /  14.5km/h 46.8% 0in /  0.0mm
18:09 73 °F /  22.8 °C 51.3 °F /  10.7 °C 30in /  1014.4hPa North 4.6mph /  7.4km/h 8mph /  12.9km/h 46.4% 0in /  0.0mm
18:14 73.4 °F /  23 °C 51.4 °F /  10.8 °C 30in /  1014.4hPa North 3.6mph /  5.8km/h 9.7mph /  15.6km/h 45.9% 0in /  0.0mm
18:19 73.8 °F /  23.2 °C 51.3 °F /  10.7 °C 30in /  1014.4hPa NNO 3.4mph /  5.5km/h 10mph /  16.1km/h 45.3% 0in /  0.0mm
18:24 74.1 °F /  23.4 °C 51.4 °F /  10.8 °C 30in /  1014.3hPa North 3.1mph /  5km/h 10.4mph /  16.7km/h 45% 0in /  0.0mm
18:29 74.1 °F /  23.4 °C 51.3 °F /  10.7 °C 30in /  1014.3hPa NE 3.5mph /  5.7km/h 10mph /  16.1km/h 44.9% 0in /  0.0mm
18:34 73.9 °F /  23.3 °C 51.3 °F /  10.7 °C 30in /  1014.3hPa NE 4.3mph /  6.9km/h 9mph /  14.5km/h 45% 0in /  0.0mm
18:39 73.8 °F /  23.2 °C 51.1 °F /  10.6 °C 29.9in /  1014.1hPa NNE 4.3mph /  6.9km/h 9.7mph /  15.6km/h 45.1% 0in /  0.0mm
18:44 73.8 °F /  23.2 °C 51.1 °F /  10.6 °C 29.9in /  1014.1hPa NNE 4.3mph /  6.9km/h 10.7mph /  17.2km/h 45.1% 0in /  0.0mm
18:49 73.8 °F /  23.2 °C 51.8 °F /  11 °C 29.9in /  1014.1hPa NE 4.7mph /  7.6km/h 11mph /  17.7km/h 46% 0in /  0.0mm
18:54 73.9 °F /  23.3 °C 52 °F /  11.1 °C 29.9in /  1014.1hPa Este 5.4mph /  8.7km/h 9.7mph /  15.6km/h 46.3% 0in /  0.0mm
18:59 73.9 °F /  23.3 °C 52.3 °F /  11.3 °C 29.9in /  1014.1hPa Este 4.8mph /  7.8km/h 10mph /  16.1km/h 47% 0in /  0.0mm
19:04 73.8 °F /  23.2 °C 51.8 °F /  11 °C 29.9in /  1014.1hPa NE 4mph /  6.5km/h 9.2mph /  14.8km/h 46.2% 0in /  0.0mm
19:09 73.4 °F /  23 °C 52.2 °F /  11.2 °C 29.9in /  1014.1hPa NE 4.1mph /  6.6km/h 9mph /  14.5km/h 47.5% 0in /  0.0mm
19:14 73.2 °F /  22.9 °C 52.5 °F /  11.4 °C 29.9in /  1014.1hPa Este 4.3mph /  6.9km/h 11.4mph /  18.3km/h 48.2% 0in /  0.0mm
19:19 73.2 °F /  22.9 °C 52.7 °F /  11.5 °C 30in /  1014.2hPa ENE 4.7mph /  7.6km/h 12mph /  19.3km/h 48.6% 0in /  0.0mm
19:24 73 °F /  22.8 °C 52.3 °F /  11.3 °C 30in /  1014.2hPa ENE 5.4mph /  8.7km/h 10mph /  16.1km/h 48% 0in /  0.0mm
19:29 73 °F /  22.8 °C 52.2 °F /  11.2 °C 30in /  1014.2hPa Este 5mph /  8.1km/h 7mph /  11.3km/h 48% 0in /  0.0mm
19:34 73 °F /  22.8 °C 52.3 °F /  11.3 °C 30in /  1014.3hPa Este 4.3mph /  6.9km/h 7.4mph /  11.9km/h 48.2% 0in /  0.0mm
19:39 73 °F /  22.8 °C 52.7 °F /  11.5 °C 30in /  1014.3hPa ENE 4.3mph /  6.9km/h 11.5mph /  18.5km/h 49% 0in /  0.0mm
19:44 73 °F /  22.8 °C 52.7 °F /  11.5 °C 30in /  1014.3hPa NE 4.3mph /  6.9km/h 12mph /  19.3km/h 49% 0in /  0.0mm
19:49 73 °F /  22.8 °C 52.9 °F /  11.6 °C 30in /  1014.3hPa ENE 4.7mph /  7.5km/h 8.1mph /  13km/h 49% 0in /  0.0mm
19:54 73.2 °F /  22.9 °C 52.9 °F /  11.6 °C 30in /  1014.3hPa NE 5.2mph /  8.4km/h 9.2mph /  14.8km/h 49% 0in /  0.0mm
19:59 73 °F /  22.8 °C 52.5 °F /  11.4 °C 30in /  1014.3hPa ENE 5mph /  8km/h 9mph /  14.5km/h 48.5% 0in /  0.0mm
20:04 73 °F /  22.8 °C 52.7 °F /  11.5 °C 30in /  1014.4hPa NE 4.7mph /  7.6km/h 8.7mph /  14km/h 49% 0in /  0.0mm
20:09 73 °F /  22.8 °C 52.7 °F /  11.5 °C 30in /  1014.4hPa ENE 5mph /  8km/h 10.4mph /  16.7km/h 48.8% 0in /  0.0mm
20:14 73 °F /  22.8 °C 52.7 °F /  11.5 °C 30in /  1014.4hPa ENE 5.4mph /  8.7km/h 10mph /  16.1km/h 48.9% 0in /  0.0mm
20:19 72.9 °F /  22.7 °C 52.3 °F /  11.3 °C 30in /  1014.5hPa ENE 5.2mph /  8.3km/h 9.2mph /  14.8km/h 48.4% 0in /  0.0mm
20:24 72.9 °F /  22.7 °C 52.7 °F /  11.5 °C 30in /  1014.5hPa NE 4.7mph /  7.6km/h 9.2mph /  14.8km/h 49.4% 0in /  0.0mm
20:29 72.7 °F /  22.6 °C 53.8 °F /  12.1 °C 30in /  1014.5hPa NE 5.2mph /  8.3km/h 11.2mph /  18km/h 51.6% 0in /  0.0mm
20:34 72.3 °F /  22.4 °C 54 °F /  12.2 °C 30in /  1014.7hPa NE 5.9mph /  9.5km/h 12.7mph /  20.4km/h 52.7% 0in /  0.0mm
20:39 71.6 °F /  22 °C 54 °F /  12.2 °C 30in /  1014.7hPa NE 6.5mph /  10.5km/h 13mph /  20.9km/h 53.8% 0in /  0.0mm
20:44 71.2 °F /  21.8 °C 54 °F /  12.2 °C 30in /  1014.7hPa NE 7.6mph /  12.2km/h 15mph /  24.1km/h 54.5% 0in /  0.0mm
20:49 71.1 °F /  21.7 °C 54 °F /  12.2 °C 30in /  1014.9hPa NE 7.5mph /  12.1km/h 15mph /  24.1km/h 55% 0in /  0.0mm
20:54 70.5 °F /  21.4 °C 54.1 °F /  12.3 °C 30in /  1014.9hPa NE 7.4mph /  11.9km/h 13mph /  20.9km/h 56% 0in /  0.0mm
20:59 70.2 °F /  21.2 °C 54.5 °F /  12.5 °C 30in /  1014.9hPa NE 7.6mph /  12.3km/h 13mph /  20.9km/h 57.4% 0in /  0.0mm
21:04 69.8 °F /  21 °C 54.5 °F /  12.5 °C 30in /  1015.1hPa NE 8.1mph /  13km/h 13mph /  20.9km/h 58.5% 0in /  0.0mm
21:09 69.4 °F /  20.8 °C 54.5 °F /  12.5 °C 30in /  1015.1hPa NE 8mph /  12.8km/h 13mph /  20.9km/h 59.3% 0in /  0.0mm
21:14 69.1 °F /  20.6 °C 54.7 °F /  12.6 °C 30in /  1015.1hPa NE 7.6mph /  12.2km/h 12mph /  19.3km/h 60% 0in /  0.0mm
21:19 68.7 °F /  20.4 °C 54.5 °F /  12.5 °C 30in /  1015.2hPa NE 6.8mph /  11km/h 10.4mph /  16.7km/h 60.7% 0in /  0.0mm
21:24 68.4 °F /  20.2 °C 54.7 °F /  12.6 °C 30in /  1015.2hPa NE 5.4mph /  8.7km/h 10mph /  16.1km/h 61.4% 0in /  0.0mm
21:29 68.4 °F /  20.2 °C 54.7 °F /  12.6 °C 30in /  1015.2hPa NE 5.2mph /  8.3km/h 9.7mph /  15.6km/h 62% 0in /  0.0mm
21:34 68 °F /  20 °C 54.5 °F /  12.5 °C 30in /  1015.5hPa NE 4.7mph /  7.6km/h 10mph /  16.1km/h 62% 0in /  0.0mm
21:39 67.8 °F /  19.9 °C 54.5 °F /  12.5 °C 30in /  1015.5hPa NE 4.9mph /  7.9km/h 9mph /  14.5km/h 62.5% 0in /  0.0mm
21:44 67.6 °F /  19.8 °C 54.5 °F /  12.5 °C 30in /  1015.5hPa ENE 5.2mph /  8.4km/h 8.1mph /  13km/h 63% 0in /  0.0mm
21:49 67.5 °F /  19.7 °C 54.9 °F /  12.7 °C 30in /  1015.7hPa NE 5mph /  8.1km/h 8mph /  12.9km/h 64% 0in /  0.0mm
21:54 67.1 °F /  19.5 °C 55 °F /  12.8 °C 30in /  1015.7hPa NE 4.7mph /  7.6km/h 9.2mph /  14.8km/h 65.1% 0in /  0.0mm
21:59 66.7 °F /  19.3 °C 55 °F /  12.8 °C 30in /  1015.7hPa NE 4.5mph /  7.3km/h 9mph /  14.5km/h 66% 0in /  0.0mm
22:04 66.6 °F /  19.2 °C 55 °F /  12.8 °C 30in /  1016.1hPa ENE 4.3mph /  6.9km/h 8.5mph /  13.7km/h 66.3% 0in /  0.0mm
22:09 66.6 °F /  19.2 °C 55.2 °F /  12.9 °C 30in /  1016.1hPa Este 4.2mph /  6.8km/h 9mph /  14.5km/h 67% 0in /  0.0mm
22:14 66.2 °F /  19 °C 55.2 °F /  12.9 °C 30in /  1016.1hPa Este 4mph /  6.5km/h 7mph /  11.3km/h 67.7% 0in /  0.0mm
22:19 66 °F /  18.9 °C 55.2 °F /  12.9 °C 30in /  1016.3hPa Este 4mph /  6.5km/h 8.1mph /  13km/h 68% 0in /  0.0mm
22:24 65.8 °F /  18.8 °C 55 °F /  12.8 °C 30in /  1016.3hPa ESE 4mph /  6.5km/h 8.1mph /  13km/h 68% 0in /  0.0mm
22:29 65.8 °F /  18.8 °C 55 °F /  12.8 °C 30in /  1016.3hPa Este 4.1mph /  6.6km/h 8.1mph /  13km/h 68% 0in /  0.0mm
22:34 65.8 °F /  18.8 °C 55 °F /  12.8 °C 30in /  1016.5hPa ESE 4.3mph /  6.9km/h 8.7mph /  14km/h 68% 0in /  0.0mm
22:39 65.8 °F /  18.8 °C 55.4 °F /  13 °C 30in /  1016.5hPa ESE 4.7mph /  7.5km/h 9.2mph /  14.8km/h 68.9% 0in /  0.0mm
22:44 65.8 °F /  18.8 °C 55.4 °F /  13 °C 30in /  1016.5hPa ESE 5.2mph /  8.4km/h 8.1mph /  13km/h 69% 0in /  0.0mm
22:49 65.8 °F /  18.8 °C 55.4 °F /  13 °C 30in /  1016.7hPa SE 4.8mph /  7.8km/h 8mph /  12.9km/h 69% 0in /  0.0mm
22:54 65.8 °F /  18.8 °C 55.4 °F /  13 °C 30in /  1016.7hPa SE 4.3mph /  6.9km/h 7mph /  11.3km/h 69% 0in /  0.0mm
22:59 65.8 °F /  18.8 °C 55.4 °F /  13 °C 30in /  1016.7hPa ESE 4.2mph /  6.7km/h 8.5mph /  13.7km/h 69% 0in /  0.0mm
23:04 65.7 °F /  18.7 °C 55.6 °F /  13.1 °C 30in /  1016.8hPa ESE 4mph /  6.5km/h 9.2mph /  14.8km/h 69.7% 0in /  0.0mm
23:09 65.5 °F /  18.6 °C 55.4 °F /  13 °C 30in /  1016.8hPa ESE 4.8mph /  7.8km/h 9.2mph /  14.8km/h 70% 0in /  0.0mm
23:14 65.5 °F /  18.6 °C 55.4 °F /  13 °C 30in /  1016.8hPa Este 6.2mph /  10km/h 9.2mph /  14.8km/h 70% 0in /  0.0mm
23:19 65.3 °F /  18.5 °C 55.6 °F /  13.1 °C 30in /  1017.1hPa Este 5.4mph /  8.7km/h 7mph /  11.3km/h 70.7% 0in /  0.0mm
23:24 65.1 °F /  18.4 °C 55.6 °F /  13.1 °C 30in /  1017.1hPa Este 4mph /  6.5km/h 7mph /  11.3km/h 71% 0in /  0.0mm
23:29 65.1 °F /  18.4 °C 55.6 °F /  13.1 °C 30in /  1017.1hPa Este 4mph /  6.5km/h 8.1mph /  13km/h 71% 0in /  0.0mm
23:34 65.1 °F /  18.4 °C 55.4 °F /  13 °C 30in /  1017.2hPa ESE 4mph /  6.5km/h 9.7mph /  15.6km/h 71% 0in /  0.0mm
23:39 65.1 °F /  18.4 °C 55.4 °F /  13 °C 30in /  1017.2hPa ESE 4.1mph /  6.6km/h 10mph /  16.1km/h 70.9% 0in /  0.0mm
23:44 65.1 °F /  18.4 °C 55.2 °F /  12.9 °C 30in /  1017.2hPa SE 4.3mph /  6.9km/h 7mph /  11.3km/h 70% 0in /  0.0mm
23:49 65.3 °F /  18.5 °C 55.2 °F /  12.9 °C 30in /  1017.2hPa ESE 3.8mph /  6.1km/h 5mph /  8km/h 70% 0in /  0.0mm
23:54 65.1 °F /  18.4 °C 55.4 °F /  13 °C 30in /  1017.2hPa ESE 2.9mph /  4.7km/h 5.2mph /  8.4km/h 70.8% 0in /  0.0mm
23:59 64.9 °F /  18.3 °C 55.4 °F /  13 °C 30in /  1017.2hPa ESE 3.2mph /  5.1km/h 6.9mph /  11.1km/h 71% 0in /  0.0mm
Murcia-Puente Tocinos, España
Compliments of Weather Underground - 3 mb

La estación de MeteoMurcia.com, publica sus datos en los siguientes proyectos:

Weather Underground PWS IMURCIAP2 Meteoclimatic www.awekas.at

W3Counter
Web Analytics